sensor_id;sensor_type;location;lat;lon;timestamp;P1;durP1;ratioP1;P2;durP2;ratioP2
56171;SDS011;42052;41.634;-0.946;2022-09-13T00:00:35;2.60;;;1.50;;
56171;SDS011;42052;41.634;-0.946;2022-09-13T00:03:01;3.05;;;1.50;;
56171;SDS011;42052;41.634;-0.946;2022-09-13T00:05:28;4.30;;;1.52;;
56171;SDS011;42052;41.634;-0.946;2022-09-13T00:07:55;4.20;;;1.75;;
56171;SDS011;42052;41.634;-0.946;2022-09-13T00:10:22;4.00;;;1.35;;
56171;SDS011;42052;41.634;-0.946;2022-09-13T00:12:48;5.88;;;1.50;;
56171;SDS011;42052;41.634;-0.946;2022-09-13T00:15:15;5.75;;;1.60;;
56171;SDS011;42052;41.634;-0.946;2022-09-13T00:17:41;3.45;;;1.52;;
56171;SDS011;42052;41.634;-0.946;2022-09-13T00:20:07;6.07;;;1.50;;
56171;SDS011;42052;41.634;-0.946;2022-09-13T00:22:33;3.10;;;1.55;;
56171;SDS011;42052;41.634;-0.946;2022-09-13T00:25:00;5.93;;;1.70;;
56171;SDS011;42052;41.634;-0.946;2022-09-13T00:27:26;5.18;;;1.65;;
56171;SDS011;42052;41.634;-0.946;2022-09-13T00:29:52;3.35;;;1.48;;
56171;SDS011;42052;41.634;-0.946;2022-09-13T00:32:18;3.42;;;1.60;;
56171;SDS011;42052;41.634;-0.946;2022-09-13T00:34:44;3.53;;;1.60;;
56171;SDS011;42052;41.634;-0.946;2022-09-13T00:37:09;5.95;;;1.60;;
56171;SDS011;42052;41.634;-0.946;2022-09-13T00:39:35;2.90;;;1.40;;
56171;SDS011;42052;41.634;-0.946;2022-09-13T00:42:01;3.72;;;1.50;;
56171;SDS011;42052;41.634;-0.946;2022-09-13T00:47:40;3.05;;;1.63;;
56171;SDS011;42052;41.634;-0.946;2022-09-13T00:50:21;4.05;;;1.60;;
56171;SDS011;42052;41.634;-0.946;2022-09-13T00:52:53;2.85;;;1.45;;
56171;SDS011;42052;41.634;-0.946;2022-09-13T00:55:26;4.20;;;1.40;;
56171;SDS011;42052;41.634;-0.946;2022-09-13T00:58:17;6.47;;;1.50;;
56171;SDS011;42052;41.634;-0.946;2022-09-13T01:00:48;2.85;;;1.30;;
56171;SDS011;42052;41.634;-0.946;2022-09-13T01:03:15;3.22;;;1.30;;
56171;SDS011;42052;41.634;-0.946;2022-09-13T01:05:51;2.03;;;1.30;;
56171;SDS011;42052;41.634;-0.946;2022-09-13T01:08:39;2.50;;;1.25;;
56171;SDS011;42052;41.634;-0.946;2022-09-13T01:11:12;3.42;;;1.30;;
56171;SDS011;42052;41.634;-0.946;2022-09-13T01:13:49;2.45;;;1.35;;
56171;SDS011;42052;41.634;-0.946;2022-09-13T01:16:16;4.78;;;1.50;;
56171;SDS011;42052;41.634;-0.946;2022-09-13T01:18:42;2.85;;;1.35;;
56171;SDS011;42052;41.634;-0.946;2022-09-13T01:24:29;2.42;;;1.27;;
56171;SDS011;42052;41.634;-0.946;2022-09-13T01:37:53;2.17;;;1.33;;
56171;SDS011;42052;41.634;-0.946;2022-09-13T01:48:16;2.60;;;1.30;;
56171;SDS011;42052;41.634;-0.946;2022-09-13T01:50:52;2.75;;;1.30;;
56171;SDS011;42052;41.634;-0.946;2022-09-13T01:53:39;2.70;;;1.42;;
56171;SDS011;42052;41.634;-0.946;2022-09-13T01:56:28;2.55;;;1.35;;
56171;SDS011;42052;41.634;-0.946;2022-09-13T02:01:46;3.80;;;1.65;;
56171;SDS011;42052;41.634;-0.946;2022-09-13T02:04:24;2.40;;;1.20;;
56171;SDS011;42052;41.634;-0.946;2022-09-13T02:06:58;3.08;;;1.50;;
56171;SDS011;42052;41.634;-0.946;2022-09-13T02:09:38;2.72;;;1.30;;
56171;SDS011;42052;41.634;-0.946;2022-09-13T02:12:15;2.45;;;1.27;;
56171;SDS011;42052;41.634;-0.946;2022-09-13T02:14:52;2.42;;;1.27;;
56171;SDS011;42052;41.634;-0.946;2022-09-13T02:17:27;2.45;;;1.35;;
56171;SDS011;42052;41.634;-0.946;2022-09-13T02:20:00;2.25;;;1.10;;
56171;SDS011;42052;41.634;-0.946;2022-09-13T02:22:35;2.30;;;1.10;;
56171;SDS011;42052;41.634;-0.946;2022-09-13T02:25:07;1.83;;;1.10;;
56171;SDS011;42052;41.634;-0.946;2022-09-13T02:27:36;2.72;;;1.30;;
56171;SDS011;42052;41.634;-0.946;2022-09-13T02:30:09;3.58;;;1.40;;
56171;SDS011;42052;41.634;-0.946;2022-09-13T02:38:03;1.80;;;1.00;;
56171;SDS011;42052;41.634;-0.946;2022-09-13T02:40:36;1.90;;;1.00;;
56171;SDS011;42052;41.634;-0.946;2022-09-13T02:43:14;1.75;;;1.10;;
56171;SDS011;42052;41.634;-0.946;2022-09-13T02:45:56;2.45;;;1.10;;
56171;SDS011;42052;41.634;-0.946;2022-09-13T02:48:49;2.75;;;1.10;;
56171;SDS011;42052;41.634;-0.946;2022-09-13T02:56:50;2.97;;;1.30;;
56171;SDS011;42052;41.634;-0.946;2022-09-13T02:59:22;2.75;;;1.40;;
56171;SDS011;42052;41.634;-0.946;2022-09-13T03:01:51;2.20;;;1.30;;
56171;SDS011;42052;41.634;-0.946;2022-09-13T03:04:28;3.38;;;1.20;;
56171;SDS011;42052;41.634;-0.946;2022-09-13T03:06:54;2.45;;;1.23;;
56171;SDS011;42052;41.634;-0.946;2022-09-13T03:09:20;1.83;;;1.20;;
56171;SDS011;42052;41.634;-0.946;2022-09-13T03:20:08;2.78;;;1.13;;
56171;SDS011;42052;41.634;-0.946;2022-09-13T03:31:34;3.00;;;1.25;;
56171;SDS011;42052;41.634;-0.946;2022-09-13T03:36:50;2.42;;;1.20;;
56171;SDS011;42052;41.634;-0.946;2022-09-13T03:39:33;3.05;;;1.20;;
56171;SDS011;42052;41.634;-0.946;2022-09-13T03:42:12;2.20;;;1.17;;
56171;SDS011;42052;41.634;-0.946;2022-09-13T03:44:49;2.22;;;1.23;;
56171;SDS011;42052;41.634;-0.946;2022-09-13T03:47:17;2.35;;;1.20;;
56171;SDS011;42052;41.634;-0.946;2022-09-13T03:49:45;2.33;;;1.20;;
56171;SDS011;42052;41.634;-0.946;2022-09-13T03:52:12;2.90;;;1.40;;
56171;SDS011;42052;41.634;-0.946;2022-09-13T03:54:38;1.73;;;1.02;;
56171;SDS011;42052;41.634;-0.946;2022-09-13T03:57:08;3.47;;;1.25;;
56171;SDS011;42052;41.634;-0.946;2022-09-13T03:59:38;2.25;;;1.00;;
56171;SDS011;42052;41.634;-0.946;2022-09-13T04:02:10;2.50;;;1.20;;
56171;SDS011;42052;41.634;-0.946;2022-09-13T04:04:39;2.10;;;1.05;;
56171;SDS011;42052;41.634;-0.946;2022-09-13T04:07:07;2.13;;;0.98;;
56171;SDS011;42052;41.634;-0.946;2022-09-13T04:09:34;2.17;;;1.10;;
56171;SDS011;42052;41.634;-0.946;2022-09-13T04:12:00;3.30;;;1.25;;
56171;SDS011;42052;41.634;-0.946;2022-09-13T04:14:27;2.85;;;1.20;;
56171;SDS011;42052;41.634;-0.946;2022-09-13T04:16:53;2.10;;;1.15;;
56171;SDS011;42052;41.634;-0.946;2022-09-13T04:19:21;2.30;;;1.40;;
56171;SDS011;42052;41.634;-0.946;2022-09-13T04:21:48;2.00;;;1.20;;
56171;SDS011;42052;41.634;-0.946;2022-09-13T04:24:17;1.88;;;1.13;;
56171;SDS011;42052;41.634;-0.946;2022-09-13T04:26:43;1.88;;;1.10;;
56171;SDS011;42052;41.634;-0.946;2022-09-13T04:29:12;2.22;;;1.10;;
56171;SDS011;42052;41.634;-0.946;2022-09-13T04:31:39;2.03;;;1.17;;
56171;SDS011;42052;41.634;-0.946;2022-09-13T04:34:04;3.33;;;0.98;;
56171;SDS011;42052;41.634;-0.946;2022-09-13T04:36:32;2.53;;;1.00;;
56171;SDS011;42052;41.634;-0.946;2022-09-13T04:38:58;2.50;;;1.30;;
56171;SDS011;42052;41.634;-0.946;2022-09-13T04:41:24;2.55;;;1.13;;
56171;SDS011;42052;41.634;-0.946;2022-09-13T04:43:50;2.10;;;1.23;;
56171;SDS011;42052;41.634;-0.946;2022-09-13T04:46:16;2.60;;;1.02;;
56171;SDS011;42052;41.634;-0.946;2022-09-13T04:48:46;2.13;;;1.08;;
56171;SDS011;42052;41.634;-0.946;2022-09-13T04:51:16;3.08;;;1.40;;
56171;SDS011;42052;41.634;-0.946;2022-09-13T04:53:46;2.58;;;1.10;;
56171;SDS011;42052;41.634;-0.946;2022-09-13T04:56:24;1.77;;;0.98;;
56171;SDS011;42052;41.634;-0.946;2022-09-13T04:58:50;2.88;;;1.10;;
56171;SDS011;42052;41.634;-0.946;2022-09-13T05:01:16;1.60;;;1.20;;
56171;SDS011;42052;41.634;-0.946;2022-09-13T05:03:42;4.13;;;1.33;;
56171;SDS011;42052;41.634;-0.946;2022-09-13T05:06:09;2.30;;;1.20;;
56171;SDS011;42052;41.634;-0.946;2022-09-13T05:08:37;1.67;;;1.02;;
56171;SDS011;42052;41.634;-0.946;2022-09-13T05:11:03;2.15;;;1.10;;
56171;SDS011;42052;41.634;-0.946;2022-09-13T05:13:30;1.98;;;1.23;;
56171;SDS011;42052;41.634;-0.946;2022-09-13T05:15:57;2.58;;;1.20;;
56171;SDS011;42052;41.634;-0.946;2022-09-13T05:18:25;1.25;;;1.10;;
56171;SDS011;42052;41.634;-0.946;2022-09-13T05:20:54;17.73;;;2.25;;
56171;SDS011;42052;41.634;-0.946;2022-09-13T05:23:21;11.63;;;1.40;;
56171;SDS011;42052;41.634;-0.946;2022-09-13T05:26:06;3.35;;;1.58;;
56171;SDS011;42052;41.634;-0.946;2022-09-13T05:28:32;7.35;;;1.50;;
56171;SDS011;42052;41.634;-0.946;2022-09-13T05:31:04;3.05;;;1.40;;
56171;SDS011;42052;41.634;-0.946;2022-09-13T05:33:33;5.07;;;1.38;;
56171;SDS011;42052;41.634;-0.946;2022-09-13T05:36:01;5.63;;;1.50;;
56171;SDS011;42052;41.634;-0.946;2022-09-13T05:38:27;3.45;;;1.48;;
56171;SDS011;42052;41.634;-0.946;2022-09-13T05:40:54;4.72;;;1.60;;
56171;SDS011;42052;41.634;-0.946;2022-09-13T05:43:21;5.43;;;1.55;;
56171;SDS011;42052;41.634;-0.946;2022-09-13T05:45:48;3.97;;;1.83;;
56171;SDS011;42052;41.634;-0.946;2022-09-13T05:48:14;5.38;;;1.70;;
56171;SDS011;42052;41.634;-0.946;2022-09-13T05:50:40;2.50;;;1.27;;
56171;SDS011;42052;41.634;-0.946;2022-09-13T05:53:06;5.65;;;1.55;;
56171;SDS011;42052;41.634;-0.946;2022-09-13T05:55:32;3.15;;;1.58;;
56171;SDS011;42052;41.634;-0.946;2022-09-13T05:57:58;4.35;;;1.50;;
56171;SDS011;42052;41.634;-0.946;2022-09-13T06:00:25;5.18;;;1.55;;
56171;SDS011;42052;41.634;-0.946;2022-09-13T06:02:51;3.75;;;1.40;;
56171;SDS011;42052;41.634;-0.946;2022-09-13T06:05:17;4.45;;;1.48;;
56171;SDS011;42052;41.634;-0.946;2022-09-13T06:07:43;3.03;;;1.42;;
56171;SDS011;42052;41.634;-0.946;2022-09-13T06:10:09;2.88;;;1.50;;
56171;SDS011;42052;41.634;-0.946;2022-09-13T06:12:35;4.97;;;1.40;;
56171;SDS011;42052;41.634;-0.946;2022-09-13T06:15:02;2.00;;;1.40;;
56171;SDS011;42052;41.634;-0.946;2022-09-13T06:17:28;2.88;;;1.30;;
56171;SDS011;42052;41.634;-0.946;2022-09-13T06:19:54;2.35;;;1.30;;
56171;SDS011;42052;41.634;-0.946;2022-09-13T06:22:21;3.35;;;1.65;;
56171;SDS011;42052;41.634;-0.946;2022-09-13T06:24:47;3.88;;;1.58;;
56171;SDS011;42052;41.634;-0.946;2022-09-13T06:27:13;3.38;;;1.30;;
56171;SDS011;42052;41.634;-0.946;2022-09-13T06:29:39;4.03;;;1.50;;
56171;SDS011;42052;41.634;-0.946;2022-09-13T06:32:04;4.40;;;1.48;;
56171;SDS011;42052;41.634;-0.946;2022-09-13T06:34:31;3.95;;;1.30;;
56171;SDS011;42052;41.634;-0.946;2022-09-13T06:36:56;1.77;;;1.33;;
56171;SDS011;42052;41.634;-0.946;2022-09-13T06:39:22;3.83;;;1.40;;
56171;SDS011;42052;41.634;-0.946;2022-09-13T06:41:48;2.38;;;1.30;;
56171;SDS011;42052;41.634;-0.946;2022-09-13T06:44:14;2.25;;;1.20;;
56171;SDS011;42052;41.634;-0.946;2022-09-13T06:46:40;3.78;;;1.23;;
56171;SDS011;42052;41.634;-0.946;2022-09-13T06:49:06;2.88;;;1.50;;
56171;SDS011;42052;41.634;-0.946;2022-09-13T06:51:33;2.28;;;1.30;;
56171;SDS011;42052;41.634;-0.946;2022-09-13T06:54:00;3.10;;;1.30;;
56171;SDS011;42052;41.634;-0.946;2022-09-13T06:56:29;3.30;;;1.23;;
56171;SDS011;42052;41.634;-0.946;2022-09-13T06:58:57;2.88;;;1.30;;
56171;SDS011;42052;41.634;-0.946;2022-09-13T07:01:28;2.67;;;1.30;;
56171;SDS011;42052;41.634;-0.946;2022-09-13T07:04:00;2.70;;;1.20;;
56171;SDS011;42052;41.634;-0.946;2022-09-13T07:06:31;2.63;;;1.30;;
56171;SDS011;42052;41.634;-0.946;2022-09-13T07:09:00;1.75;;;1.30;;
56171;SDS011;42052;41.634;-0.946;2022-09-13T07:11:33;1.92;;;1.20;;
56171;SDS011;42052;41.634;-0.946;2022-09-13T07:14:01;2.78;;;1.23;;
56171;SDS011;42052;41.634;-0.946;2022-09-13T07:16:29;2.13;;;1.45;;
56171;SDS011;42052;41.634;-0.946;2022-09-13T07:18:59;2.28;;;1.30;;
56171;SDS011;42052;41.634;-0.946;2022-09-13T07:21:28;1.52;;;1.20;;
56171;SDS011;42052;41.634;-0.946;2022-09-13T07:23:54;1.95;;;1.10;;
56171;SDS011;42052;41.634;-0.946;2022-09-13T07:26:21;2.25;;;1.10;;
56171;SDS011;42052;41.634;-0.946;2022-09-13T07:28:47;2.58;;;1.23;;
56171;SDS011;42052;41.634;-0.946;2022-09-13T07:31:20;1.75;;;1.27;;
56171;SDS011;42052;41.634;-0.946;2022-09-13T07:33:47;2.05;;;1.08;;
56171;SDS011;42052;41.634;-0.946;2022-09-13T07:36:17;2.63;;;1.30;;
56171;SDS011;42052;41.634;-0.946;2022-09-13T07:38:43;2.65;;;1.15;;
56171;SDS011;42052;41.634;-0.946;2022-09-13T07:41:13;3.00;;;1.40;;
56171;SDS011;42052;41.634;-0.946;2022-09-13T07:43:41;1.97;;;1.20;;
56171;SDS011;42052;41.634;-0.946;2022-09-13T07:46:08;2.13;;;1.40;;
56171;SDS011;42052;41.634;-0.946;2022-09-13T07:48:38;1.88;;;1.30;;
56171;SDS011;42052;41.634;-0.946;2022-09-13T07:51:07;2.28;;;1.05;;
56171;SDS011;42052;41.634;-0.946;2022-09-13T07:53:35;3.38;;;1.42;;
56171;SDS011;42052;41.634;-0.946;2022-09-13T07:56:04;2.35;;;1.40;;
56171;SDS011;42052;41.634;-0.946;2022-09-13T07:58:45;3.05;;;1.25;;
56171;SDS011;42052;41.634;-0.946;2022-09-13T08:01:13;1.27;;;1.00;;
56171;SDS011;42052;41.634;-0.946;2022-09-13T08:03:43;2.53;;;1.30;;
56171;SDS011;42052;41.634;-0.946;2022-09-13T08:06:14;3.50;;;1.27;;
56171;SDS011;42052;41.634;-0.946;2022-09-13T08:08:40;1.58;;;1.20;;
56171;SDS011;42052;41.634;-0.946;2022-09-13T08:11:06;1.70;;;1.10;;
56171;SDS011;42052;41.634;-0.946;2022-09-13T08:13:32;2.35;;;1.08;;
56171;SDS011;42052;41.634;-0.946;2022-09-13T08:16:02;1.55;;;1.13;;
56171;SDS011;42052;41.634;-0.946;2022-09-13T08:18:30;2.90;;;1.45;;
56171;SDS011;42052;41.634;-0.946;2022-09-13T08:20:57;2.08;;;1.25;;
56171;SDS011;42052;41.634;-0.946;2022-09-13T08:23:24;3.03;;;1.05;;
56171;SDS011;42052;41.634;-0.946;2022-09-13T08:25:50;2.08;;;1.10;;
56171;SDS011;42052;41.634;-0.946;2022-09-13T08:28:17;2.28;;;1.30;;
56171;SDS011;42052;41.634;-0.946;2022-09-13T08:30:45;1.83;;;1.10;;
56171;SDS011;42052;41.634;-0.946;2022-09-13T08:33:12;2.13;;;1.20;;
56171;SDS011;42052;41.634;-0.946;2022-09-13T08:35:38;2.25;;;1.25;;
56171;SDS011;42052;41.634;-0.946;2022-09-13T08:38:05;1.95;;;1.10;;
56171;SDS011;42052;41.634;-0.946;2022-09-13T08:40:39;1.42;;;1.10;;
56171;SDS011;42052;41.634;-0.946;2022-09-13T08:43:15;2.95;;;1.30;;
56171;SDS011;42052;41.634;-0.946;2022-09-13T08:46:09;2.05;;;1.10;;
56171;SDS011;42052;41.634;-0.946;2022-09-13T08:49:04;1.80;;;1.10;;
56171;SDS011;42052;41.634;-0.946;2022-09-13T08:51:50;2.15;;;1.02;;
56171;SDS011;42052;41.634;-0.946;2022-09-13T08:54:25;3.53;;;1.30;;
56171;SDS011;42052;41.634;-0.946;2022-09-13T08:56:59;2.17;;;1.38;;
56171;SDS011;42052;41.634;-0.946;2022-09-13T08:59:57;2.47;;;1.40;;
56171;SDS011;42052;41.634;-0.946;2022-09-13T09:02:41;2.33;;;1.20;;
56171;SDS011;42052;41.634;-0.946;2022-09-13T09:05:18;2.05;;;1.15;;
56171;SDS011;42052;41.634;-0.946;2022-09-13T09:07:53;1.40;;;1.00;;
56171;SDS011;42052;41.634;-0.946;2022-09-13T09:10:28;1.23;;;1.02;;
56171;SDS011;42052;41.634;-0.946;2022-09-13T09:13:07;2.08;;;1.17;;
56171;SDS011;42052;41.634;-0.946;2022-09-13T09:15:45;3.60;;;1.20;;
56171;SDS011;42052;41.634;-0.946;2022-09-13T09:18:24;1.98;;;1.10;;
56171;SDS011;42052;41.634;-0.946;2022-09-13T09:20:52;2.45;;;1.15;;
56171;SDS011;42052;41.634;-0.946;2022-09-13T09:23:25;2.05;;;1.10;;
56171;SDS011;42052;41.634;-0.946;2022-09-13T09:26:13;1.77;;;1.10;;
56171;SDS011;42052;41.634;-0.946;2022-09-13T09:28:43;1.77;;;1.20;;
56171;SDS011;42052;41.634;-0.946;2022-09-13T09:33:59;1.63;;;1.13;;
56171;SDS011;42052;41.634;-0.946;2022-09-13T09:36:39;2.40;;;1.20;;
56171;SDS011;42052;41.634;-0.946;2022-09-13T09:39:15;2.10;;;1.00;;
56171;SDS011;42052;41.634;-0.946;2022-09-13T09:41:42;2.63;;;1.45;;
56171;SDS011;42052;41.634;-0.946;2022-09-13T09:46:54;3.63;;;1.33;;
56171;SDS011;42052;41.634;-0.946;2022-09-13T09:49:45;2.83;;;1.30;;
56171;SDS011;42052;41.634;-0.946;2022-09-13T09:55:31;3.20;;;1.17;;
56171;SDS011;42052;41.634;-0.946;2022-09-13T09:58:05;2.25;;;1.10;;
56171;SDS011;42052;41.634;-0.946;2022-09-13T10:00:36;2.13;;;1.13;;
56171;SDS011;42052;41.634;-0.946;2022-09-13T10:03:28;2.50;;;1.20;;
56171;SDS011;42052;41.634;-0.946;2022-09-13T10:06:05;1.63;;;1.00;;
56171;SDS011;42052;41.634;-0.946;2022-09-13T10:08:37;1.88;;;1.10;;
56171;SDS011;42052;41.634;-0.946;2022-09-13T10:11:06;1.75;;;1.08;;
56171;SDS011;42052;41.634;-0.946;2022-09-13T10:13:33;2.63;;;1.30;;
56171;SDS011;42052;41.634;-0.946;2022-09-13T10:16:04;1.73;;;1.08;;
56171;SDS011;42052;41.634;-0.946;2022-09-13T10:18:35;2.72;;;1.30;;
56171;SDS011;42052;41.634;-0.946;2022-09-13T10:21:03;1.60;;;0.95;;
56171;SDS011;42052;41.634;-0.946;2022-09-13T10:23:34;4.22;;;1.15;;
56171;SDS011;42052;41.634;-0.946;2022-09-13T10:28:32;3.58;;;1.30;;
56171;SDS011;42052;41.634;-0.946;2022-09-13T10:31:19;3.70;;;1.20;;
56171;SDS011;42052;41.634;-0.946;2022-09-13T10:33:55;2.15;;;1.00;;
56171;SDS011;42052;41.634;-0.946;2022-09-13T10:36:29;2.40;;;1.15;;
56171;SDS011;42052;41.634;-0.946;2022-09-13T10:41:29;3.88;;;1.50;;
56171;SDS011;42052;41.634;-0.946;2022-09-13T10:43:58;1.92;;;0.90;;
56171;SDS011;42052;41.634;-0.946;2022-09-13T10:46:26;2.35;;;1.10;;
56171;SDS011;42052;41.634;-0.946;2022-09-13T10:48:57;2.45;;;1.10;;
56171;SDS011;42052;41.634;-0.946;2022-09-13T10:53:51;2.83;;;1.23;;
56171;SDS011;42052;41.634;-0.946;2022-09-13T10:56:41;2.83;;;1.23;;
56171;SDS011;42052;41.634;-0.946;2022-09-13T11:02:03;3.45;;;1.10;;
56171;SDS011;42052;41.634;-0.946;2022-09-13T11:08:09;2.22;;;1.27;;
56171;SDS011;42052;41.634;-0.946;2022-09-13T11:13:42;2.47;;;1.27;;
56171;SDS011;42052;41.634;-0.946;2022-09-13T11:30:12;4.18;;;1.20;;
56171;SDS011;42052;41.634;-0.946;2022-09-13T11:55:15;3.65;;;1.30;;
56171;SDS011;42052;41.634;-0.946;2022-09-13T11:57:48;4.15;;;1.40;;
56171;SDS011;42052;41.634;-0.946;2022-09-13T12:00:23;2.60;;;1.35;;
56171;SDS011;42052;41.634;-0.946;2022-09-13T12:06:10;3.55;;;1.20;;
56171;SDS011;42052;41.634;-0.946;2022-09-13T12:11:02;3.63;;;1.08;;
56171;SDS011;42052;41.634;-0.946;2022-09-13T12:13:49;2.10;;;1.00;;
56171;SDS011;42052;41.634;-0.946;2022-09-13T12:16:25;3.03;;;1.27;;
56171;SDS011;42052;41.634;-0.946;2022-09-13T12:18:56;4.45;;;1.40;;
56171;SDS011;42052;41.634;-0.946;2022-09-13T12:21:26;3.20;;;1.30;;
56171;SDS011;42052;41.634;-0.946;2022-09-13T12:29:18;2.70;;;1.20;;
56171;SDS011;42052;41.634;-0.946;2022-09-13T12:32:03;3.35;;;1.40;;
56171;SDS011;42052;41.634;-0.946;2022-09-13T12:34:34;2.10;;;0.90;;
56171;SDS011;42052;41.634;-0.946;2022-09-13T12:40:42;3.05;;;1.15;;
56171;SDS011;42052;41.634;-0.946;2022-09-13T12:43:25;2.63;;;1.15;;
56171;SDS011;42052;41.634;-0.946;2022-09-13T12:49:03;3.53;;;1.30;;
56171;SDS011;42052;41.634;-0.946;2022-09-13T13:05:02;2.95;;;0.90;;
56171;SDS011;42052;41.634;-0.946;2022-09-13T13:07:48;3.10;;;1.00;;
56171;SDS011;42052;41.634;-0.946;2022-09-13T13:10:34;2.22;;;1.00;;
56171;SDS011;42052;41.634;-0.946;2022-09-13T13:18:47;2.40;;;0.95;;
56171;SDS011;42052;41.634;-0.946;2022-09-13T13:21:23;4.30;;;1.02;;
56171;SDS011;42052;41.634;-0.946;2022-09-13T13:24:36;3.25;;;1.10;;
56171;SDS011;42052;41.634;-0.946;2022-09-13T13:26:48;4.38;;;1.23;;
56171;SDS011;42052;41.634;-0.946;2022-09-13T13:29:24;2.05;;;0.90;;
56171;SDS011;42052;41.634;-0.946;2022-09-13T13:37:03;3.00;;;0.90;;
56171;SDS011;42052;41.634;-0.946;2022-09-13T13:41:56;2.25;;;0.90;;
56171;SDS011;42052;41.634;-0.946;2022-09-13T14:00:28;2.83;;;1.05;;
56171;SDS011;42052;41.634;-0.946;2022-09-13T14:03:05;2.88;;;0.82;;
56171;SDS011;42052;41.634;-0.946;2022-09-13T14:13:42;3.00;;;0.85;;
56171;SDS011;42052;41.634;-0.946;2022-09-13T14:16:47;3.83;;;1.08;;
56171;SDS011;42052;41.634;-0.946;2022-09-13T14:22:11;3.92;;;1.05;;
56171;SDS011;42052;41.634;-0.946;2022-09-13T14:24:44;2.35;;;0.85;;
56171;SDS011;42052;41.634;-0.946;2022-09-13T14:29:45;3.70;;;0.90;;
56171;SDS011;42052;41.634;-0.946;2022-09-13T14:32:17;3.03;;;1.00;;
56171;SDS011;42052;41.634;-0.946;2022-09-13T14:34:50;2.90;;;1.10;;
56171;SDS011;42052;41.634;-0.946;2022-09-13T14:37:26;2.35;;;0.90;;
56171;SDS011;42052;41.634;-0.946;2022-09-13T14:42:21;3.55;;;1.15;;
56171;SDS011;42052;41.634;-0.946;2022-09-13T14:44:47;3.00;;;1.00;;
56171;SDS011;42052;41.634;-0.946;2022-09-13T14:47:30;2.83;;;1.17;;
56171;SDS011;42052;41.634;-0.946;2022-09-13T14:50:12;4.03;;;1.13;;
56171;SDS011;42052;41.634;-0.946;2022-09-13T14:52:46;4.70;;;1.15;;
56171;SDS011;42052;41.634;-0.946;2022-09-13T14:55:19;3.70;;;1.20;;
56171;SDS011;42052;41.634;-0.946;2022-09-13T14:57:49;2.90;;;0.95;;
56171;SDS011;42052;41.634;-0.946;2022-09-13T15:00:22;2.85;;;1.10;;
56171;SDS011;42052;41.634;-0.946;2022-09-13T15:03:00;3.58;;;1.10;;
56171;SDS011;42052;41.634;-0.946;2022-09-13T15:05:32;2.75;;;1.05;;
56171;SDS011;42052;41.634;-0.946;2022-09-13T15:08:20;2.22;;;1.20;;
56171;SDS011;42052;41.634;-0.946;2022-09-13T15:11:06;3.97;;;1.00;;
56171;SDS011;42052;41.634;-0.946;2022-09-13T15:13:59;3.03;;;1.17;;
56171;SDS011;42052;41.634;-0.946;2022-09-13T15:16:29;2.75;;;1.00;;
56171;SDS011;42052;41.634;-0.946;2022-09-13T15:19:15;6.75;;;1.30;;
56171;SDS011;42052;41.634;-0.946;2022-09-13T15:21:50;4.18;;;1.05;;
56171;SDS011;42052;41.634;-0.946;2022-09-13T15:24:28;2.35;;;0.85;;
56171;SDS011;42052;41.634;-0.946;2022-09-13T15:27:30;2.95;;;1.08;;
56171;SDS011;42052;41.634;-0.946;2022-09-13T15:29:51;3.60;;;0.90;;
56171;SDS011;42052;41.634;-0.946;2022-09-13T15:32:33;2.87;;;1.03;;
56171;SDS011;42052;41.634;-0.946;2022-09-13T15:35:14;4.03;;;1.05;;
56171;SDS011;42052;41.634;-0.946;2022-09-13T15:38:06;5.07;;;1.17;;
56171;SDS011;42052;41.634;-0.946;2022-09-13T15:40:42;2.63;;;1.00;;
56171;SDS011;42052;41.634;-0.946;2022-09-13T15:43:10;3.97;;;1.30;;
56171;SDS011;42052;41.634;-0.946;2022-09-13T15:45:36;2.90;;;1.20;;
56171;SDS011;42052;41.634;-0.946;2022-09-13T15:48:01;2.20;;;0.90;;
56171;SDS011;42052;41.634;-0.946;2022-09-13T15:50:29;3.40;;;1.00;;
56171;SDS011;42052;41.634;-0.946;2022-09-13T15:52:57;4.22;;;1.02;;
56171;SDS011;42052;41.634;-0.946;2022-09-13T15:55:24;2.47;;;1.08;;
56171;SDS011;42052;41.634;-0.946;2022-09-13T15:57:52;4.32;;;1.20;;
56171;SDS011;42052;41.634;-0.946;2022-09-13T16:00:22;5.88;;;1.23;;
56171;SDS011;42052;41.634;-0.946;2022-09-13T16:02:52;3.38;;;1.20;;
56171;SDS011;42052;41.634;-0.946;2022-09-13T16:05:18;3.83;;;1.20;;
56171;SDS011;42052;41.634;-0.946;2022-09-13T16:07:44;3.50;;;1.00;;
56171;SDS011;42052;41.634;-0.946;2022-09-13T16:10:20;4.13;;;1.10;;
56171;SDS011;42052;41.634;-0.946;2022-09-13T16:12:47;3.45;;;1.08;;
56171;SDS011;42052;41.634;-0.946;2022-09-13T16:15:13;4.75;;;1.25;;
56171;SDS011;42052;41.634;-0.946;2022-09-13T16:17:39;4.53;;;1.10;;
56171;SDS011;42052;41.634;-0.946;2022-09-13T16:20:06;2.45;;;1.10;;
56171;SDS011;42052;41.634;-0.946;2022-09-13T16:22:38;4.60;;;1.30;;
56171;SDS011;42052;41.634;-0.946;2022-09-13T16:25:04;4.00;;;1.10;;
56171;SDS011;42052;41.634;-0.946;2022-09-13T16:27:31;4.05;;;1.20;;
56171;SDS011;42052;41.634;-0.946;2022-09-13T16:29:57;2.35;;;1.15;;
56171;SDS011;42052;41.634;-0.946;2022-09-13T16:32:23;4.95;;;1.17;;
56171;SDS011;42052;41.634;-0.946;2022-09-13T16:34:49;3.95;;;1.30;;
56171;SDS011;42052;41.634;-0.946;2022-09-13T16:37:16;3.20;;;0.95;;
56171;SDS011;42052;41.634;-0.946;2022-09-13T16:39:43;4.40;;;1.27;;
56171;SDS011;42052;41.634;-0.946;2022-09-13T16:42:10;2.10;;;1.30;;
56171;SDS011;42052;41.634;-0.946;2022-09-13T16:44:37;4.55;;;1.95;;
56171;SDS011;42052;41.634;-0.946;2022-09-13T16:47:03;4.50;;;2.03;;
56171;SDS011;42052;41.634;-0.946;2022-09-13T16:49:29;6.57;;;2.42;;
56171;SDS011;42052;41.634;-0.946;2022-09-13T16:51:55;5.72;;;2.88;;
56171;SDS011;42052;41.634;-0.946;2022-09-13T16:54:24;4.72;;;2.70;;
56171;SDS011;42052;41.634;-0.946;2022-09-13T16:56:51;6.25;;;2.70;;
56171;SDS011;42052;41.634;-0.946;2022-09-13T16:59:17;5.18;;;2.30;;
56171;SDS011;42052;41.634;-0.946;2022-09-13T17:01:43;4.22;;;2.42;;
56171;SDS011;42052;41.634;-0.946;2022-09-13T17:04:09;3.65;;;2.42;;
56171;SDS011;42052;41.634;-0.946;2022-09-13T17:06:35;3.78;;;2.53;;
56171;SDS011;42052;41.634;-0.946;2022-09-13T17:09:02;4.60;;;2.53;;
56171;SDS011;42052;41.634;-0.946;2022-09-13T17:11:31;3.30;;;2.28;;
56171;SDS011;42052;41.634;-0.946;2022-09-13T17:14:00;5.32;;;2.45;;
56171;SDS011;42052;41.634;-0.946;2022-09-13T17:16:27;5.32;;;2.30;;
56171;SDS011;42052;41.634;-0.946;2022-09-13T17:18:57;9.43;;;2.42;;
56171;SDS011;42052;41.634;-0.946;2022-09-13T17:21:27;4.53;;;2.75;;
56171;SDS011;42052;41.634;-0.946;2022-09-13T17:23:54;4.78;;;2.58;;
56171;SDS011;42052;41.634;-0.946;2022-09-13T17:26:20;3.47;;;2.30;;
56171;SDS011;42052;41.634;-0.946;2022-09-13T17:28:47;3.95;;;2.30;;
56171;SDS011;42052;41.634;-0.946;2022-09-13T17:31:12;4.57;;;2.28;;
56171;SDS011;42052;41.634;-0.946;2022-09-13T17:33:39;4.82;;;2.30;;
56171;SDS011;42052;41.634;-0.946;2022-09-13T17:36:06;4.35;;;2.30;;
56171;SDS011;42052;41.634;-0.946;2022-09-13T17:38:35;3.55;;;2.35;;
56171;SDS011;42052;41.634;-0.946;2022-09-13T17:41:02;3.88;;;2.45;;
56171;SDS011;42052;41.634;-0.946;2022-09-13T17:43:30;4.50;;;2.42;;
56171;SDS011;42052;41.634;-0.946;2022-09-13T17:46:01;2.40;;;2.20;;
56171;SDS011;42052;41.634;-0.946;2022-09-13T17:48:32;2.30;;;1.90;;
56171;SDS011;42052;41.634;-0.946;2022-09-13T17:51:02;4.25;;;2.10;;
56171;SDS011;42052;41.634;-0.946;2022-09-13T17:53:29;4.95;;;2.20;;
56171;SDS011;42052;41.634;-0.946;2022-09-13T17:55:55;2.75;;;2.10;;
56171;SDS011;42052;41.634;-0.946;2022-09-13T17:58:24;3.60;;;1.92;;
56171;SDS011;42052;41.634;-0.946;2022-09-13T18:00:58;4.65;;;2.10;;
56171;SDS011;42052;41.634;-0.946;2022-09-13T18:03:28;3.83;;;2.13;;
56171;SDS011;42052;41.634;-0.946;2022-09-13T18:05:56;3.65;;;2.08;;
56171;SDS011;42052;41.634;-0.946;2022-09-13T18:08:23;3.38;;;2.05;;
56171;SDS011;42052;41.634;-0.946;2022-09-13T18:10:50;3.30;;;2.10;;
56171;SDS011;42052;41.634;-0.946;2022-09-13T18:13:16;3.63;;;1.90;;